Time;durP1;ratioP1;P1;durP2;ratioP2;P2;SDS_P1;SDS_P2;PMS_P1;PMS_P2;Temp;Humidity;BMP_temperature;BMP_pressure;BME280_temperature;BME280_humidity;BME280_pressure;Samples;Min_cycle;Max_cycle;Signal;HPM_P1;HPM_P2
2023/05/06 00:01:55;;;;;;;23.38;21.00;;;12.30;99.90;;;;;;6160979;23;20179;-90
2023/05/06 00:04:21;;;;;;;24.40;21.95;;;12.30;65.30;;;;;;6149533;23;20250;-89
2023/05/06 00:06:47;;;;;;;25.20;22.73;;;13.20;99.90;;;;;;6149472;23;20704;-89
2023/05/06 00:09:13;;;;;;;27.05;24.17;;;12.40;91.70;;;;;;6149426;23;20223;-91
2023/05/06 00:11:39;;;;;;;25.95;23.55;;;12.50;99.90;;;;;;6148847;23;20386;-90
2023/05/06 00:14:05;;;;;;;26.65;23.95;;;12.60;1.00;;;;;;6148160;23;20163;-90
2023/05/06 00:16:31;;;;;;;26.63;24.08;;;12.70;1.00;;;;;;6150976;23;20163;-90
2023/05/06 00:18:56;;;;;;;25.80;23.02;;;12.70;1.00;;;;;;6153352;23;20155;-89
2023/05/06 00:21:22;;;;;;;25.77;23.23;;;12.80;99.90;;;;;;6154339;23;20184;-89
2023/05/06 00:23:47;;;;;;;26.58;24.08;;;12.70;99.90;;;;;;6103297;23;20189;-90
2023/05/06 00:26:13;;;;;;;31.08;28.08;;;12.70;99.90;;;;;;6148804;23;20179;-90
2023/05/06 00:28:39;;;;;;;29.67;26.88;;;12.60;99.90;;;;;;6149637;23;20163;-90
2023/05/06 00:31:05;;;;;;;36.20;32.50;;;13.10;1.00;;;;;;6149486;23;20206;-89
2023/05/06 00:33:33;;;;;;;34.28;30.73;;;12.70;1.00;;;;;;6148308;23;20167;-90
2023/05/06 00:35:59;;;;;;;30.13;27.10;;;12.70;1.00;;;;;;6146935;23;20239;-90
2023/05/06 00:38:24;;;;;;;36.10;32.50;;;12.40;1.00;;;;;;6148298;23;20190;-90
2023/05/06 00:40:51;;;;;;;35.05;31.42;;;13.50;1.00;;;;;;6148474;23;20207;-91
2023/05/06 00:43:17;;;;;;;34.95;31.25;;;12.60;1.00;;;;;;6148111;23;20190;-90
2023/05/06 00:45:42;;;;;;;35.42;31.92;;;12.60;1.00;;;;;;6123851;23;20164;-91
2023/05/06 00:48:08;;;;;;;36.88;33.08;;;12.90;1.00;;;;;;6148579;23;20163;-90
2023/05/06 00:50:35;;;;;;;34.15;30.58;;;12.60;1.00;;;;;;6147984;23;20225;-90
2023/05/06 00:53:02;;;;;;;37.25;33.53;;;12.50;1.00;;;;;;6123363;23;20180;-90
2023/05/06 00:55:29;;;;;;;33.55;29.95;;;12.60;1.00;;;;;;6123454;23;20163;-89
2023/05/06 00:57:56;;;;;;;32.42;29.27;;;12.60;1.00;;;;;;6149329;23;20904;-88
2023/05/06 01:00:22;;;;;;;34.08;30.58;;;12.70;1.00;;;;;;6123520;23;20162;-90
2023/05/06 01:02:48;;;;;;;32.85;29.65;;;12.80;1.00;;;;;;6148843;23;20179;-90
2023/05/06 01:05:16;;;;;;;35.17;31.65;;;12.80;1.00;;;;;;6147730;23;20174;-89
2023/05/06 01:08:05;;;;;;;29.52;26.67;;;12.80;1.00;;;;;;6123433;23;20159;-90
2023/05/06 01:10:54;;;;;;;33.25;29.77;;;12.80;15.40;;;;;;6122945;23;20234;-90
2023/05/06 01:13:29;;;;;;;33.30;29.92;;;12.80;1.00;;;;;;6122807;23;20176;-89
2023/05/06 01:15:58;;;;;;;32.08;28.77;;;12.80;1.00;;;;;;6122306;23;20174;-91
2023/05/06 01:18:25;;;;;;;32.95;29.60;;;12.70;86.40;;;;;;6122535;23;20168;-90
2023/05/06 01:20:53;;;;;;;31.33;28.08;;;12.70;99.90;;;;;;6148944;23;20163;-90
2023/05/06 01:23:19;;;;;;;31.80;28.58;;;12.70;99.90;;;;;;6149256;23;20171;-89
2023/05/06 01:25:44;;;;;;;31.48;28.35;;;12.70;87.00;;;;;;6147065;23;20229;-89
2023/05/06 01:28:11;;;;;;;33.08;29.67;;;12.70;22.40;;;;;;6147836;23;20218;-91
2023/05/06 01:30:51;;;;;;;35.95;32.25;;;12.70;99.90;;;;;;6122990;23;20164;-90
2023/05/06 01:33:39;;;;;;;34.35;30.90;;;12.60;99.90;;;;;;6123043;23;20540;-90
2023/05/06 01:36:17;;;;;;;31.08;27.95;;;12.90;99.90;;;;;;6123421;23;20140;-90
2023/05/06 01:39:17;;;;;;;28.90;26.05;;;12.70;99.90;;;;;;6123322;23;20147;-90
2023/05/06 01:41:45;;;;;;;36.85;31.77;;;12.70;21.10;;;;;;6122905;23;20663;-90
2023/05/06 01:44:12;;;;;;;35.05;30.70;;;13.50;99.90;;;;;;6148884;23;20206;-90
2023/05/06 01:46:38;;;;;;;32.75;29.23;;;12.70;1.00;;;;;;6123161;23;20203;-90
2023/05/06 01:49:06;;;;;;;41.38;33.42;;;12.70;1.00;;;;;;6147639;23;20218;-90
2023/05/06 01:51:35;;;;;;;34.45;29.23;;;12.70;99.90;;;;;;6122507;23;20568;-90
2023/05/06 01:54:01;;;;;;;47.13;34.75;;;12.70;1.00;;;;;;6147118;23;20168;-89
2023/05/06 01:56:29;;;;;;;37.00;33.00;;;12.70;1.00;;;;;;6147654;23;20596;-90
2023/05/06 01:58:56;;;;;;;36.80;32.45;;;12.70;1.00;;;;;;6122838;23;20263;-90
2023/05/06 02:01:21;;;;;;;35.20;31.23;;;12.70;6.00;;;;;;6122932;23;20928;-89
2023/05/06 02:03:47;;;;;;;40.08;34.38;;;12.80;1.00;;;;;;6123326;23;20164;-90
2023/05/06 02:06:12;;;;;;;35.95;31.88;;;12.80;1.00;;;;;;6147855;23;20199;-89
2023/05/06 02:08:39;;;;;;;35.30;30.02;;;12.80;1.00;;;;;;6148215;23;20164;-90
2023/05/06 02:11:05;;;;;;;36.40;32.38;;;12.90;1.00;;;;;;6147541;23;20202;-90
2023/05/06 02:13:30;;;;;;;34.97;31.20;;;12.80;99.90;;;;;;6147905;23;20183;-90
2023/05/06 02:15:56;;;;;;;33.72;30.17;;;12.70;1.00;;;;;;6147631;23;20195;-89
2023/05/06 02:18:22;;;;;;;35.92;32.13;;;12.70;1.00;;;;;;6147597;23;20159;-89
2023/05/06 02:20:47;;;;;;;37.40;33.50;;;12.70;1.00;;;;;;6147462;23;20792;-90
2023/05/06 02:23:13;;;;;;;34.40;30.83;;;12.80;1.00;;;;;;6147700;23;20643;-89
2023/05/06 02:25:38;;;;;;;33.45;30.05;;;12.70;1.00;;;;;;6147336;23;20301;-89
2023/05/06 02:28:04;;;;;;;36.60;32.85;;;12.70;48.10;;;;;;6123179;23;20159;-90
2023/05/06 02:30:30;;;;;;;38.13;34.13;;;12.70;65.90;;;;;;6123263;23;20776;-89
2023/05/06 02:32:56;;;;;;;37.13;33.13;;;12.70;99.90;;;;;;6147594;23;20230;-89
2023/05/06 02:35:22;;;;;;;37.05;33.15;;;12.70;99.90;;;;;;6147685;23;20240;-89
2023/05/06 02:37:47;;;;;;;38.50;34.42;;;12.70;99.90;;;;;;6124260;23;20566;-90
2023/05/06 02:40:13;;;;;;;37.20;33.38;;;12.70;99.90;;;;;;6150090;23;20163;-89
2023/05/06 02:42:38;;;;;;;36.85;33.03;;;12.80;99.90;;;;;;6150275;23;20260;-89
2023/05/06 02:45:05;;;;;;;36.00;32.20;;;12.70;99.90;;;;;;6124644;23;20199;-89
2023/05/06 02:47:30;;;;;;;31.42;28.23;;;12.70;99.90;;;;;;6124592;23;20167;-89
2023/05/06 02:49:56;;;;;;;31.67;28.52;;;12.70;99.90;;;;;;6125299;23;20242;-90
2023/05/06 02:52:21;;;;;;;29.05;25.95;;;12.70;99.90;;;;;;6149249;23;20535;-89
2023/05/06 02:54:47;;;;;;;31.02;27.83;;;12.60;99.90;;;;;;6149375;23;20156;-90
2023/05/06 02:57:13;;;;;;;30.40;27.17;;;12.60;99.90;;;;;;6149681;23;20162;-90
2023/05/06 02:59:38;;;;;;;29.63;26.23;;;12.60;99.90;;;;;;6149600;23;20170;-90
2023/05/06 03:02:04;;;;;;;28.08;25.25;;;12.60;99.90;;;;;;6149512;23;20482;-90
2023/05/06 03:04:29;;;;;;;28.55;25.55;;;12.50;99.90;;;;;;6149429;23;20217;-91
2023/05/06 03:06:56;;;;;;;28.35;25.45;;;12.50;99.90;;;;;;6149906;23;20160;-90
2023/05/06 03:09:21;;;;;;;28.35;25.30;;;12.50;99.90;;;;;;6149708;23;20164;-90
2023/05/06 03:11:48;;;;;;;28.30;25.35;;;12.50;99.90;;;;;;6149622;23;20223;-90
2023/05/06 03:14:13;;;;;;;27.90;25.00;;;12.40;99.90;;;;;;6125320;23;20156;-91
2023/05/06 03:16:39;;;;;;;28.27;25.40;;;13.10;99.90;;;;;;6149787;23;20162;-90
2023/05/06 03:19:05;;;;;;;28.67;25.77;;;12.50;99.90;;;;;;6149611;23;20174;-91
2023/05/06 03:21:31;;;;;;;28.25;25.38;;;12.40;99.90;;;;;;6149794;23;20214;-88
2023/05/06 03:23:56;;;;;;;28.73;25.83;;;12.40;99.90;;;;;;6149133;23;20498;-89
2023/05/06 03:26:22;;;;;;;28.40;25.50;;;12.40;99.90;;;;;;6149572;23;20183;-90
2023/05/06 03:28:47;;;;;;;27.70;24.88;;;12.40;99.90;;;;;;6149591;23;20202;-90
2023/05/06 03:31:13;;;;;;;27.30;24.60;;;12.40;99.90;;;;;;6149286;23;20187;-90
2023/05/06 03:33:39;;;;;;;28.38;25.38;;;12.40;99.90;;;;;;6149779;23;20652;-89
2023/05/06 03:36:05;;;;;;;29.73;26.80;;;12.40;99.90;;;;;;6125001;23;20181;-90
2023/05/06 03:38:31;;;;;;;27.98;24.98;;;12.40;99.90;;;;;;6149623;23;20167;-88
2023/05/06 03:40:56;;;;;;;29.60;26.50;;;12.40;1.00;;;;;;6124674;23;20210;-90
2023/05/06 03:43:22;;;;;;;32.25;28.83;;;12.40;1.00;;;;;;6148889;23;20187;-89
2023/05/06 03:45:47;;;;;;;32.47;28.55;;;12.40;1.00;;;;;;6149547;23;20199;-90
2023/05/06 03:48:13;;;;;;;29.27;26.27;;;13.10;1.00;;;;;;6124529;23;20163;-89
2023/05/06 03:50:39;;;;;;;28.83;25.77;;;12.40;1.00;;;;;;6149110;23;20282;-90
2023/05/06 03:53:04;;;;;;;29.70;26.42;;;12.40;1.00;;;;;;6149263;23;20184;-89
2023/05/06 03:55:30;;;;;;;28.98;26.05;;;12.40;1.00;;;;;;6148943;23;20689;-89
2023/05/06 03:57:55;;;;;;;26.23;23.58;;;13.10;1.00;;;;;;6149267;23;20186;-90
2023/05/06 04:00:21;;;;;;;26.95;24.13;;;12.40;1.00;;;;;;6150043;23;20202;-90
2023/05/06 04:02:47;;;;;;;26.63;23.83;;;12.30;1.00;;;;;;6149025;23;20262;-89
2023/05/06 04:05:12;;;;;;;25.40;22.80;;;12.30;1.00;;;;;;6149101;23;20160;-90
2023/05/06 04:07:38;;;;;;;25.10;22.50;;;12.30;99.90;;;;;;6148899;23;20164;-90
2023/05/06 04:10:04;;;;;;;25.98;22.52;;;12.30;99.90;;;;;;6149334;23;20933;-89
2023/05/06 04:12:30;;;;;;;26.00;23.23;;;12.30;1.00;;;;;;6124893;23;20334;-89
2023/05/06 04:14:55;;;;;;;25.65;22.98;;;12.30;1.00;;;;;;6148951;23;20212;-89
2023/05/06 04:17:21;;;;;;;24.52;21.98;;;12.30;1.00;;;;;;6148979;23;20159;-89
2023/05/06 04:19:47;;;;;;;24.05;21.45;;;12.40;1.00;;;;;;6124277;23;20170;-90
2023/05/06 04:22:12;;;;;;;25.33;22.70;;;12.40;99.90;;;;;;6149527;23;20214;-90
2023/05/06 04:24:38;;;;;;;23.45;21.02;;;12.40;99.90;;;;;;6150907;23;20591;-89
2023/05/06 04:27:03;;;;;;;24.88;22.27;;;13.10;99.90;;;;;;6149454;23;20619;-89
2023/05/06 04:29:29;;;;;;;22.52;20.13;;;12.40;62.50;;;;;;6149843;23;20160;-89
2023/05/06 04:31:54;;;;;;;21.77;19.58;;;12.40;99.90;;;;;;6149497;23;20670;-89
2023/05/06 04:34:20;;;;;;;22.13;19.88;;;12.40;99.90;;;;;;6149799;23;20218;-89
2023/05/06 04:36:46;;;;;;;21.00;18.83;;;12.30;99.90;;;;;;6150279;23;20480;-89
2023/05/06 04:39:12;;;;;;;21.90;19.65;;;12.30;1.00;;;;;;6149738;23;20627;-89
2023/05/06 04:41:38;;;;;;;22.00;19.80;;;12.40;22.60;;;;;;6125105;23;20179;-89
2023/05/06 04:44:04;;;;;;;21.52;19.38;;;12.30;1.00;;;;;;6149500;23;20187;-90
2023/05/06 04:46:29;;;;;;;19.73;17.80;;;12.30;1.00;;;;;;6149825;23;20167;-90
2023/05/06 04:48:57;;;;;;;18.88;17.08;;;12.30;99.90;;;;;;6149666;23;20174;-89
2023/05/06 04:51:22;;;;;;;19.95;18.05;;;12.40;99.90;;;;;;6149194;23;20207;-90
2023/05/06 04:53:48;;;;;;;19.73;17.73;;;12.50;43.50;;;;;;6151238;23;20152;-90
2023/05/06 04:56:13;;;;;;;17.48;15.77;;;12.50;99.90;;;;;;6149894;23;20156;-89
2023/05/06 04:58:39;;;;;;;17.65;15.90;;;12.50;1.00;;;;;;6125318;23;20156;-90
2023/05/06 05:01:07;;;;;;;19.00;17.20;;;12.90;1.00;;;;;;6149517;23;20163;-90
2023/05/06 05:03:33;;;;;;;16.73;15.18;;;12.50;1.00;;;;;;6125036;23;20164;-89
2023/05/06 05:05:59;;;;;;;17.80;16.10;;;12.70;1.00;;;;;;6125402;23;20219;-89
2023/05/06 05:08:24;;;;;;;17.40;15.70;;;12.50;1.00;;;;;;6150128;23;20218;-88
2023/05/06 05:10:50;;;;;;;17.02;15.43;;;12.70;99.90;;;;;;6150286;23;20258;-90
2023/05/06 05:13:15;;;;;;;15.85;14.23;;;12.70;21.10;;;;;;6149903;23;20187;-89
2023/05/06 05:15:44;;;;;;;15.93;14.43;;;12.60;1.00;;;;;;6125027;23;20159;-90
2023/05/06 05:18:12;;;;;;;13.98;12.65;;;12.60;99.90;;;;;;6150664;23;20552;-90
2023/05/06 05:20:38;;;;;;;14.68;13.27;;;12.60;1.00;;;;;;6126883;23;20478;-90
2023/05/06 05:23:03;;;;;;;14.77;13.38;;;12.60;99.90;;;;;;6151492;23;20186;-90
2023/05/06 05:25:29;;;;;;;13.75;12.50;;;13.30;99.90;;;;;;6150996;23;20238;-90
2023/05/06 05:27:54;;;;;;;13.38;12.07;;;12.60;1.00;;;;;;6152366;23;20150;-89
2023/05/06 05:30:20;;;;;;;13.02;11.73;;;12.50;1.00;;;;;;6153759;23;20653;-88
2023/05/06 05:32:46;;;;;;;12.70;11.55;;;12.50;99.90;;;;;;6152587;23;20203;-90
2023/05/06 05:35:11;;;;;;;12.52;11.43;;;12.50;1.00;;;;;;6152223;23;20156;-89
2023/05/06 05:37:37;;;;;;;13.20;12.00;;;12.60;52.10;;;;;;6152122;23;20234;-90
2023/05/06 05:40:03;;;;;;;12.73;11.52;;;12.60;1.00;;;;;;6152304;23;20163;-90
2023/05/06 05:42:32;;;;;;;12.75;11.55;;;12.60;1.00;;;;;;6128158;23;20511;-89
2023/05/06 05:44:58;;;;;;;11.95;10.77;;;12.60;99.90;;;;;;6155379;23;20178;-89
2023/05/06 05:47:24;;;;;;;11.43;10.32;;;12.60;1.00;;;;;;6129100;23;20167;-89
2023/05/06 05:49:50;;;;;;;11.55;10.55;;;12.70;99.90;;;;;;6128950;23;20607;-89
2023/05/06 05:52:15;;;;;;;10.55;9.57;;;12.80;99.90;;;;;;6152255;23;20654;-88
2023/05/06 05:54:41;;;;;;;10.85;9.82;;;12.80;1.00;;;;;;6097559;23;20358;-90
2023/05/06 05:57:06;;;;;;;10.70;9.65;;;12.80;1.00;;;;;;6121855;23;20160;-89
2023/05/06 05:59:32;;;;;;;10.43;9.43;;;12.80;27.90;;;;;;6121867;23;20619;-90
2023/05/06 06:01:58;;;;;;;11.15;10.15;;;13.00;99.90;;;;;;6147736;23;20183;-89
2023/05/06 06:04:23;;;;;;;10.70;9.70;;;13.10;1.00;;;;;;6146658;23;20160;-90
2023/05/06 06:06:56;;;;;;;10.27;9.27;;;13.20;99.90;;;;;;6122185;23;20544;-90
2023/05/06 06:09:22;;;;;;;11.07;10.07;;;13.50;1.00;;;;;;6123652;23;20487;-89
2023/05/06 06:11:48;;;;;;;11.10;10.20;;;13.30;1.00;;;;;;6156040;23;20311;-89
2023/05/06 06:14:13;;;;;;;10.20;9.30;;;13.30;1.00;;;;;;6151937;23;20170;-88
2023/05/06 06:16:39;;;;;;;10.85;9.75;;;13.20;1.00;;;;;;6129536;23;20497;-89
2023/05/06 06:19:08;;;;;;;11.23;10.23;;;13.10;1.00;;;;;;6130284;23;20156;-89
2023/05/06 06:21:34;;;;;;;11.45;10.35;;;13.10;99.90;;;;;;6131614;23;20176;-89
2023/05/06 06:24:00;;;;;;;11.80;10.60;;;13.60;99.90;;;;;;6156048;23;20164;-90
2023/05/06 06:26:26;;;;;;;12.05;10.95;;;13.70;99.90;;;;;;6155287;23;20175;-89
2023/05/06 06:28:51;;;;;;;11.82;10.68;;;13.40;1.00;;;;;;6129373;23;20168;-89
2023/05/06 06:31:17;;;;;;;11.93;10.82;;;12.90;1.00;;;;;;6154541;23;20184;-89
2023/05/06 06:33:43;;;;;;;11.05;10.13;;;12.90;1.00;;;;;;6153861;23;20159;-89
2023/05/06 06:36:09;;;;;;;12.10;11.00;;;12.80;1.00;;;;;;6154590;23;20611;-89
2023/05/06 06:38:35;;;;;;;10.60;9.65;;;12.80;61.10;;;;;;6129368;23;20159;-89
2023/05/06 06:41:00;;;;;;;11.68;10.57;;;13.30;1.00;;;;;;6129548;23;20152;-89
2023/05/06 06:43:26;;;;;;;11.57;10.57;;;12.90;1.00;;;;;;6154526;23;20179;-89
2023/05/06 06:45:51;;;;;;;10.93;9.93;;;12.90;99.90;;;;;;6154976;23;20160;-90
2023/05/06 06:48:17;;;;;;;11.68;10.60;;;13.00;1.00;;;;;;6130555;23;20152;-89
2023/05/06 06:50:43;;;;;;;12.48;11.38;;;13.10;1.00;;;;;;6133495;23;20155;-89
2023/05/06 06:53:09;;;;;;;11.45;10.45;;;13.10;99.90;;;;;;6160351;23;20262;-90
2023/05/06 06:55:35;;;;;;;11.55;10.52;;;13.10;30.10;;;;;;6128202;23;20160;-89
2023/05/06 06:58:01;;;;;;;14.45;11.23;;;13.00;1.00;;;;;;6153364;23;20190;-90
2023/05/06 07:00:27;;;;;;;13.07;11.88;;;13.90;99.90;;;;;;6155655;23;20198;-89
2023/05/06 07:02:52;;;;;;;11.98;10.88;;;13.30;99.90;;;;;;6154195;23;20183;-90
2023/05/06 07:05:18;;;;;;;11.45;10.45;;;13.50;1.00;;;;;;6154061;23;20163;-89
2023/05/06 07:07:44;;;;;;;11.30;10.30;;;13.60;1.00;;;;;;6129533;23;20520;-89
2023/05/06 07:10:13;;;;;;;10.85;9.95;;;13.70;1.00;;;;;;6154667;23;20307;-89
2023/05/06 07:12:38;;;;;;;10.43;9.52;;;13.70;1.00;;;;;;6129379;23;20199;-89
2023/05/06 07:15:05;;;;;;;11.38;10.27;;;13.90;1.00;;;;;;6128718;23;20163;-89
2023/05/06 07:17:32;;;;;;;10.82;9.90;;;14.00;1.00;;;;;;6128917;23;20198;-89
2023/05/06 07:20:02;;;;;;;10.90;9.90;;;14.00;99.90;;;;;;6128258;23;20187;-90
2023/05/06 07:22:34;;;;;;;11.95;10.85;;;14.00;99.90;;;;;;6128655;23;20628;-89
2023/05/06 07:25:07;;;;;;;10.85;9.95;;;14.10;99.90;;;;;;6152756;23;20255;-89
2023/05/06 07:27:33;;;;;;;11.55;10.50;;;14.20;99.90;;;;;;6128338;23;20602;-89
2023/05/06 07:30:07;;;;;;;10.68;9.77;;;14.30;99.90;;;;;;6155267;23;20184;-89
2023/05/06 07:32:32;;;;;;;11.25;10.25;;;14.40;99.90;;;;;;6129324;23;20198;-89
2023/05/06 07:35:04;;;;;;;10.57;9.68;;;14.50;99.90;;;;;;6154524;23;20286;-89
2023/05/06 07:37:30;;;;;;;12.55;11.45;;;14.70;99.90;;;;;;6129190;23;20147;-89
2023/05/06 07:39:56;;;;;;;12.60;11.50;;;14.80;99.90;;;;;;6151749;23;20182;-89
2023/05/06 07:42:22;;;;;;;13.02;11.93;;;14.70;99.90;;;;;;6153755;23;20179;-89
2023/05/06 07:44:47;;;;;;;12.13;11.13;;;14.70;99.90;;;;;;6153787;23;20226;-89
2023/05/06 07:47:26;;;;;;;12.50;11.38;;;14.70;99.90;;;;;;6153381;23;20234;-90
2023/05/06 07:49:52;;;;;;;12.00;11.00;;;14.60;99.90;;;;;;6128847;23;20535;-89
2023/05/06 07:52:17;;;;;;;12.02;11.02;;;14.50;99.90;;;;;;6153217;23;20226;-89
2023/05/06 07:54:43;;;;;;;12.60;11.40;;;14.40;99.90;;;;;;6153519;23;20465;-89
2023/05/06 07:57:08;;;;;;;12.02;11.00;;;14.30;99.90;;;;;;6153785;23;20151;-90
2023/05/06 07:59:36;;;;;;;13.27;12.18;;;14.80;99.90;;;;;;6152803;23;20218;-90
2023/05/06 08:02:01;;;;;;;12.77;11.68;;;14.10;99.90;;;;;;6149084;23;20225;-89
2023/05/06 08:04:27;;;;;;;13.07;11.93;;;14.20;99.90;;;;;;6123880;23;20164;-90
2023/05/06 08:06:52;;;;;;;13.77;12.68;;;14.60;99.90;;;;;;6149814;23;20158;-89
2023/05/06 08:09:18;;;;;;;13.95;12.75;;;14.00;99.90;;;;;;6149802;23;20163;-89
2023/05/06 08:11:44;;;;;;;12.13;11.13;;;14.10;99.90;;;;;;6150929;23;20314;-89
2023/05/06 08:14:09;;;;;;;14.98;13.70;;;14.90;99.90;;;;;;6148466;23;20245;-90
2023/05/06 08:16:35;;;;;;;13.35;12.25;;;14.60;99.90;;;;;;6148290;23;20163;-90
2023/05/06 08:19:01;;;;;;;12.32;11.23;;;14.70;99.90;;;;;;6150520;23;20543;-90
2023/05/06 08:21:26;;;;;;;13.57;12.45;;;14.60;99.90;;;;;;6149716;23;20171;-90
2023/05/06 08:23:52;;;;;;;12.82;11.82;;;15.50;99.90;;;;;;6148002;23;20868;-91
2023/05/06 08:26:18;;;;;;;13.40;12.18;;;15.00;99.90;;;;;;6149160;23;20206;-89
2023/05/06 08:28:47;;;;;;;13.43;12.32;;;15.40;99.90;;;;;;6148356;23;20220;-90
2023/05/06 08:31:13;;;;;;;13.82;12.63;;;15.20;99.90;;;;;;6148413;23;20187;-90
2023/05/06 08:33:38;;;;;;;12.50;11.50;;;15.70;99.90;;;;;;6124371;23;20252;-89
2023/05/06 08:36:04;;;;;;;13.07;12.07;;;15.80;93.50;;;;;;6123590;23;20155;-90
2023/05/06 08:38:30;;;;;;;12.13;11.13;;;15.90;97.60;;;;;;6150666;23;20154;-90
2023/05/06 08:40:59;;;;;;;12.20;11.00;;;16.70;34.50;;;;;;6147056;23;20190;-90
2023/05/06 08:43:27;;;;;;;11.75;10.75;;;16.30;18.10;;;;;;6120593;23;20266;-91
2023/05/06 08:45:53;;;;;;;12.18;11.07;;;16.70;28.60;;;;;;6120267;23;20152;-90
2023/05/06 08:48:19;;;;;;;11.52;10.52;;;16.50;25.60;;;;;;6144632;23;20171;-91
2023/05/06 08:50:48;;;;;;;10.68;9.80;;;17.10;1.00;;;;;;6144685;23;20202;-91
2023/05/06 08:53:13;;;;;;;10.85;10.00;;;17.40;1.00;;;;;;6122977;23;20196;-90
2023/05/06 08:55:43;;;;;;;12.15;11.15;;;17.60;1.00;;;;;;6148521;23;20189;-90
2023/05/06 08:58:12;;;;;;;11.50;10.57;;;16.60;1.00;;;;;;6123618;23;20155;-90
2023/05/06 09:00:38;;;;;;;11.20;10.30;;;17.00;1.00;;;;;;6122045;23;20160;-90
2023/05/06 09:03:03;;;;;;;11.48;10.50;;;16.50;1.00;;;;;;6119298;23;20183;-90
2023/05/06 09:05:30;;;;;;;12.05;10.93;;;17.20;1.00;;;;;;6143533;23;20242;-91
2023/05/06 09:07:56;;;;;;;11.05;10.15;;;16.90;1.00;;;;;;6145202;23;20551;-92
2023/05/06 09:10:31;;;;;;;10.55;9.65;;;17.20;1.00;;;;;;6149151;23;20234;-89
2023/05/06 09:12:57;;;;;;;10.73;9.68;;;16.90;1.00;;;;;;6121873;23;20658;-89
2023/05/06 09:15:24;;;;;;;10.00;8.98;;;16.70;1.00;;;;;;6122618;23;20162;-90
2023/05/06 09:17:50;;;;;;;11.60;10.60;;;16.90;1.00;;;;;;6122431;23;20291;-90
2023/05/06 09:20:16;;;;;;;10.85;9.95;;;17.40;1.00;;;;;;6146937;23;20217;-90
2023/05/06 09:22:42;;;;;;;10.85;9.93;;;16.50;1.00;;;;;;6122451;23;20191;-90
2023/05/06 09:25:14;;;;;;;10.20;9.30;;;16.30;1.00;;;;;;6122526;23;20191;-90
2023/05/06 09:27:40;;;;;;;11.00;10.00;;;16.30;1.00;;;;;;6098328;23;20222;-91
2023/05/06 09:30:10;;;;;;;10.18;9.30;;;16.40;1.00;;;;;;6147549;23;20168;-92
2023/05/06 09:32:40;;;;;;;16.58;10.40;;;16.30;1.00;;;;;;6123354;23;20198;-89
2023/05/06 09:35:07;;;;;;;10.63;9.53;;;16.50;1.00;;;;;;6155596;23;20431;-90
2023/05/06 09:44:17;;;;;;;9.60;8.65;;;17.40;1.00;;;;;;6154386;23;20555;-88
2023/05/06 09:46:43;;;;;;;11.07;9.05;;;18.40;1.00;;;;;;6127012;23;20156;-89
2023/05/06 09:49:09;;;;;;;12.15;8.95;;;18.10;1.00;;;;;;6125477;23;20210;-89
2023/05/06 09:51:35;;;;;;;8.32;7.55;;;18.20;1.00;;;;;;6123284;23;20195;-88
2023/05/06 09:54:02;;;;;;;9.55;7.93;;;17.90;1.00;;;;;;6122572;23;20171;-89
2023/05/06 09:56:30;;;;;;;9.48;8.43;;;17.70;1.00;;;;;;6149332;23;20226;-88
2023/05/06 09:59:00;;;;;;;8.98;8.02;;;17.90;1.00;;;;;;6148366;23;20152;-88
2023/05/06 10:01:26;;;;;;;8.73;7.93;;;17.60;1.00;;;;;;6121818;23;20180;-88
2023/05/06 10:03:53;;;;;;;8.73;7.93;;;17.70;1.00;;;;;;6119574;23;20642;-89
2023/05/06 10:06:21;;;;;;;9.27;8.48;;;17.70;1.00;;;;;;6117716;23;20164;-89
2023/05/06 10:08:47;;;;;;;9.52;8.63;;;17.70;1.00;;;;;;6120789;23;20172;-88
2023/05/06 10:11:14;;;;;;;11.05;9.20;;;17.90;1.00;;;;;;6119828;23;20195;-89
2023/05/06 10:13:41;;;;;;;8.90;8.10;;;17.80;1.00;;;;;;6121692;23;20671;-89
2023/05/06 10:16:08;;;;;;;9.00;8.20;;;18.30;1.00;;;;;;6120787;23;20160;-89
2023/05/06 10:18:35;;;;;;;8.23;7.53;;;18.10;1.00;;;;;;6126467;23;20182;-89
2023/05/06 10:21:05;;;;;;;7.97;7.30;;;18.10;1.00;;;;;;6123794;23;20159;-87
2023/05/06 10:23:58;;;;;;;8.82;7.95;;;17.30;1.00;;;;;;6123394;23;20162;-88
2023/05/06 10:26:26;;;;;;;8.38;7.60;;;17.10;1.00;;;;;;6123091;23;20223;-88
2023/05/06 10:28:53;;;;;;;8.20;7.47;;;17.20;1.00;;;;;;6149486;23;20194;-90
2023/05/06 10:31:19;;;;;;;8.48;7.72;;;17.70;1.00;;;;;;6122556;23;20525;-88
2023/05/06 10:33:49;;;;;;;8.90;8.00;;;17.40;1.00;;;;;;6148896;23;20152;-89
2023/05/06 10:36:24;;;;;;;8.00;7.30;;;17.50;1.00;;;;;;6122657;23;20263;-87
2023/05/06 10:38:55;;;;;;;8.05;7.30;;;17.20;1.00;;;;;;6148708;23;20632;-86
2023/05/06 10:41:22;;;;;;;6.88;6.18;;;17.40;1.00;;;;;;6122912;23;20288;-85
2023/05/06 10:43:54;;;;;;;7.25;6.50;;;17.90;1.00;;;;;;6123104;23;20575;-87
2023/05/06 10:46:20;;;;;;;7.15;6.55;;;17.60;1.00;;;;;;6148356;23;20483;-86
2023/05/06 10:49:04;;;;;;;7.15;6.45;;;17.90;1.00;;;;;;6122459;23;20250;-86
2023/05/06 10:51:31;;;;;;;6.68;6.07;;;18.00;1.00;;;;;;6122926;23;20200;-87
2023/05/06 10:54:01;;;;;;;7.28;6.45;;;18.60;1.00;;;;;;6120843;23;20608;-88
2023/05/06 10:56:30;;;;;;;6.70;6.05;;;18.20;1.00;;;;;;6145453;23;20231;-88
2023/05/06 10:58:59;;;;;;;7.18;6.47;;;18.10;1.00;;;;;;6123365;23;20551;-88
2023/05/06 11:01:26;;;;;;;7.30;6.63;;;17.80;1.00;;;;;;6128123;23;20187;-89
2023/05/06 11:03:52;;;;;;;7.28;6.43;;;18.00;1.00;;;;;;6126343;23;20163;-89
2023/05/06 11:06:45;;;;;;;6.90;6.20;;;17.90;1.00;;;;;;6124157;23;20171;-88
2023/05/06 11:09:22;;;;;;;6.90;6.30;;;17.80;1.00;;;;;;6126908;23;20152;-90
2023/05/06 11:12:04;;;;;;;7.35;6.65;;;18.30;1.00;;;;;;6127418;23;20250;-89
2023/05/06 11:14:31;;;;;;;6.68;6.07;;;17.50;1.00;;;;;;6129793;23;20148;-87
2023/05/06 11:16:58;;;;;;;6.65;5.85;;;17.90;1.00;;;;;;6156038;23;20148;-87
2023/05/06 11:19:29;;;;;;;6.85;6.03;;;17.70;1.00;;;;;;6130260;23;20163;-86
2023/05/06 11:21:57;;;;;;;6.78;6.03;;;17.80;1.00;;;;;;6130390;23;20179;-87
2023/05/06 11:24:24;;;;;;;6.88;6.28;;;17.50;1.00;;;;;;6130437;23;20176;-88
2023/05/06 11:26:49;;;;;;;5.88;5.30;;;17.80;1.00;;;;;;6129098;23;20456;-87
2023/05/06 11:29:16;;;;;;;5.90;5.30;;;17.50;1.00;;;;;;6151681;23;20159;-86
2023/05/06 11:31:43;;;;;;;4.82;4.30;;;17.50;1.00;;;;;;6124033;23;20253;-86
2023/05/06 11:34:12;;;;;;;4.75;3.78;;;18.10;1.00;;;;;;6126262;23;20156;-87
2023/05/06 11:36:53;;;;;;;4.47;3.83;;;17.90;1.00;;;;;;6127957;23;20160;-86
2023/05/06 11:39:18;;;;;;;5.55;4.00;;;17.70;1.00;;;;;;6130087;23;20584;-88
2023/05/06 11:41:44;;;;;;;5.35;4.80;;;17.60;1.00;;;;;;6130400;23;20187;-86
2023/05/06 11:44:11;;;;;;;5.78;4.55;;;17.90;1.00;;;;;;6154916;23;20159;-88
2023/05/06 11:46:37;;;;;;;5.82;4.32;;;18.10;1.00;;;;;;6127010;23;20211;-86
2023/05/06 11:49:03;;;;;;;4.60;4.20;;;18.40;1.00;;;;;;6124531;23;20167;-86
2023/05/06 11:51:28;;;;;;;5.50;4.53;;;18.30;1.00;;;;;;6125744;23;20200;-88
2023/05/06 11:54:09;;;;;;;5.63;4.55;;;17.80;1.00;;;;;;6128938;23;20513;-87
2023/05/06 11:56:45;;;;;;;5.18;4.18;;;17.20;1.00;;;;;;6125633;23;20486;-86
2023/05/06 11:59:11;;;;;;;4.53;4.13;;;17.80;1.00;;;;;;6124617;23;20246;-88
2023/05/06 12:01:40;;;;;;;5.90;4.53;;;17.80;1.00;;;;;;6125829;23;20179;-87
2023/05/06 12:04:05;;;;;;;5.68;4.70;;;17.90;1.00;;;;;;6125760;23;20148;-89
2023/05/06 12:06:34;;;;;;;5.22;4.20;;;17.90;1.00;;;;;;6128251;23;20167;-87
2023/05/06 12:09:05;;;;;;;4.80;4.40;;;17.90;1.00;;;;;;6128027;23;20190;-86
2023/05/06 12:11:32;;;;;;;4.80;3.92;;;17.10;1.00;;;;;;6153463;23;20187;-87
2023/05/06 12:13:58;;;;;;;5.53;4.28;;;17.30;1.00;;;;;;6129229;23;20510;-86
2023/05/06 12:16:24;;;;;;;7.03;4.57;;;17.00;1.00;;;;;;6128021;23;20159;-86
2023/05/06 12:18:52;;;;;;;6.38;5.60;;;17.00;1.00;;;;;;6152806;23;20484;-85
2023/05/06 12:21:22;;;;;;;6.93;5.82;;;17.50;1.00;;;;;;6127488;23;20148;-86
2023/05/06 12:24:00;;;;;;;6.20;5.68;;;17.20;1.00;;;;;;6123622;23;20294;-86
2023/05/06 12:26:26;;;;;;;5.70;5.10;;;17.10;1.00;;;;;;6123233;23;20253;-85
2023/05/06 12:29:12;;;;;;;5.50;4.93;;;17.00;1.00;;;;;;6150210;23;20160;-87
2023/05/06 12:31:38;;;;;;;5.45;4.95;;;17.30;1.00;;;;;;6150149;23;20540;-86
2023/05/06 12:34:04;;;;;;;5.30;4.85;;;17.00;1.00;;;;;;6150615;23;20151;-87
2023/05/06 12:36:31;;;;;;;5.15;4.75;;;17.50;1.00;;;;;;6123353;23;20159;-86
2023/05/06 12:39:00;;;;;;;5.85;5.10;;;17.60;1.00;;;;;;6147589;23;20152;-87
2023/05/06 12:41:42;;;;;;;5.20;4.80;;;17.90;1.00;;;;;;6123000;23;20183;-87
2023/05/06 12:44:35;;;;;;;6.10;5.57;;;17.80;1.00;;;;;;6122475;23;20159;-88
2023/05/06 12:47:17;;;;;;;7.82;5.13;;;17.60;1.00;;;;;;6121651;23;20251;-87